Ciempozuelos, Spain
Current Conditions -  °F | °C
As of 11:00 AM on Sunday 25 Jan 2015 (Local Time) from LEGT Reporting Station
Clear Clear  
Wind Chill: 45°   Ceiling: Unl
Heat Index: 45°   Visibility: 6mi
Dew Point: 28°   Wind: 3mph
Humidity: 53%   Direction: 200°SSW
Pressure: 30.36"   Gusts: NA
Location:  40.16°N, 3.62°W
Report Text: LEGT 251000Z 20003KT CAVOK 07/M02 Q1028
Loading
Personal Weather Stations






























Interactive Weather Map New forecast layout! Learn more

10-Day Weather Forecast

Advertisements
Track Severe Weather on mobile